sensor_id;sensor_type;location;lat;lon;timestamp;P1;durP1;ratioP1;P2;durP2;ratioP2
39874;SDS011;25547;52.530;13.194;2023-04-25T00:00:35;2.03;;;0.20;;
39874;SDS011;25547;52.530;13.194;2023-04-25T00:03:00;1.15;;;0.20;;
39874;SDS011;25547;52.530;13.194;2023-04-25T00:05:31;3.13;;;0.20;;
39874;SDS011;25547;52.530;13.194;2023-04-25T00:07:57;4.38;;;0.20;;
39874;SDS011;25547;52.530;13.194;2023-04-25T00:10:23;2.63;;;0.10;;
39874;SDS011;25547;52.530;13.194;2023-04-25T00:12:51;2.70;;;0.20;;
39874;SDS011;25547;52.530;13.194;2023-04-25T00:15:17;1.40;;;0.20;;
39874;SDS011;25547;52.530;13.194;2023-04-25T00:17:42;3.35;;;0.20;;
39874;SDS011;25547;52.530;13.194;2023-04-25T00:20:08;2.13;;;0.20;;
39874;SDS011;25547;52.530;13.194;2023-04-25T00:22:34;1.70;;;0.20;;
39874;SDS011;25547;52.530;13.194;2023-04-25T00:25:03;2.33;;;0.20;;
39874;SDS011;25547;52.530;13.194;2023-04-25T00:27:30;6.90;;;0.20;;
39874;SDS011;25547;52.530;13.194;2023-04-25T00:29:58;2.55;;;0.30;;
39874;SDS011;25547;52.530;13.194;2023-04-25T00:32:26;3.28;;;0.10;;
39874;SDS011;25547;52.530;13.194;2023-04-25T00:34:51;5.30;;;0.28;;
39874;SDS011;25547;52.530;13.194;2023-04-25T00:37:17;3.05;;;0.40;;
39874;SDS011;25547;52.530;13.194;2023-04-25T00:39:43;2.25;;;0.52;;
39874;SDS011;25547;52.530;13.194;2023-04-25T00:42:09;2.20;;;0.20;;
39874;SDS011;25547;52.530;13.194;2023-04-25T00:44:35;2.75;;;0.30;;
39874;SDS011;25547;52.530;13.194;2023-04-25T00:47:02;3.13;;;0.20;;
39874;SDS011;25547;52.530;13.194;2023-04-25T00:49:28;3.13;;;0.40;;
39874;SDS011;25547;52.530;13.194;2023-04-25T00:51:56;6.40;;;0.30;;
39874;SDS011;25547;52.530;13.194;2023-04-25T00:54:21;2.92;;;0.28;;
39874;SDS011;25547;52.530;13.194;2023-04-25T00:56:50;5.78;;;0.30;;
39874;SDS011;25547;52.530;13.194;2023-04-25T00:59:20;3.17;;;0.30;;
39874;SDS011;25547;52.530;13.194;2023-04-25T01:01:49;4.65;;;0.30;;
39874;SDS011;25547;52.530;13.194;2023-04-25T01:04:15;3.47;;;0.30;;
39874;SDS011;25547;52.530;13.194;2023-04-25T01:06:41;7.20;;;0.95;;
39874;SDS011;25547;52.530;13.194;2023-04-25T01:09:06;2.25;;;0.20;;
39874;SDS011;25547;52.530;13.194;2023-04-25T01:11:32;2.85;;;0.20;;
39874;SDS011;25547;52.530;13.194;2023-04-25T01:13:59;5.28;;;0.30;;
39874;SDS011;25547;52.530;13.194;2023-04-25T01:16:26;3.45;;;0.30;;
39874;SDS011;25547;52.530;13.194;2023-04-25T01:18:55;4.00;;;0.20;;
39874;SDS011;25547;52.530;13.194;2023-04-25T01:21:22;5.40;;;0.35;;
39874;SDS011;25547;52.530;13.194;2023-04-25T01:23:52;6.63;;;0.20;;
39874;SDS011;25547;52.530;13.194;2023-04-25T01:26:21;3.88;;;0.28;;
39874;SDS011;25547;52.530;13.194;2023-04-25T01:28:50;4.30;;;0.30;;
39874;SDS011;25547;52.530;13.194;2023-04-25T01:31:16;3.63;;;0.40;;
39874;SDS011;25547;52.530;13.194;2023-04-25T01:33:42;3.63;;;0.28;;
39874;SDS011;25547;52.530;13.194;2023-04-25T01:36:11;4.00;;;0.30;;
39874;SDS011;25547;52.530;13.194;2023-04-25T01:38:40;9.45;;;0.88;;
39874;SDS011;25547;52.530;13.194;2023-04-25T01:41:06;4.75;;;0.45;;
39874;SDS011;25547;52.530;13.194;2023-04-25T01:43:34;3.22;;;0.60;;
39874;SDS011;25547;52.530;13.194;2023-04-25T01:46:00;5.70;;;0.70;;
39874;SDS011;25547;52.530;13.194;2023-04-25T01:48:29;3.00;;;0.40;;
39874;SDS011;25547;52.530;13.194;2023-04-25T01:50:54;3.13;;;0.30;;
39874;SDS011;25547;52.530;13.194;2023-04-25T01:53:20;5.50;;;0.60;;
39874;SDS011;25547;52.530;13.194;2023-04-25T01:55:46;6.32;;;0.55;;
39874;SDS011;25547;52.530;13.194;2023-04-25T01:58:11;3.88;;;0.30;;
39874;SDS011;25547;52.530;13.194;2023-04-25T02:00:38;2.95;;;0.38;;
39874;SDS011;25547;52.530;13.194;2023-04-25T02:03:06;4.15;;;0.30;;
39874;SDS011;25547;52.530;13.194;2023-04-25T02:05:39;4.32;;;0.45;;
39874;SDS011;25547;52.530;13.194;2023-04-25T02:08:09;4.63;;;1.20;;
39874;SDS011;25547;52.530;13.194;2023-04-25T02:10:35;4.47;;;0.43;;
39874;SDS011;25547;52.530;13.194;2023-04-25T02:13:01;3.20;;;0.50;;
39874;SDS011;25547;52.530;13.194;2023-04-25T02:15:29;1.65;;;0.30;;
39874;SDS011;25547;52.530;13.194;2023-04-25T02:17:55;4.88;;;0.28;;
39874;SDS011;25547;52.530;13.194;2023-04-25T02:20:21;4.32;;;0.60;;
39874;SDS011;25547;52.530;13.194;2023-04-25T02:22:48;5.00;;;0.40;;
39874;SDS011;25547;52.530;13.194;2023-04-25T02:25:14;7.75;;;0.52;;
39874;SDS011;25547;52.530;13.194;2023-04-25T02:27:41;5.93;;;0.50;;
39874;SDS011;25547;52.530;13.194;2023-04-25T02:30:07;4.57;;;0.50;;
39874;SDS011;25547;52.530;13.194;2023-04-25T02:32:34;5.60;;;0.40;;
39874;SDS011;25547;52.530;13.194;2023-04-25T02:35:00;6.55;;;0.68;;
39874;SDS011;25547;52.530;13.194;2023-04-25T02:37:32;3.85;;;0.65;;
39874;SDS011;25547;52.530;13.194;2023-04-25T02:39:59;4.57;;;0.57;;
39874;SDS011;25547;52.530;13.194;2023-04-25T02:42:25;2.80;;;0.40;;
39874;SDS011;25547;52.530;13.194;2023-04-25T02:44:52;3.72;;;1.05;;
39874;SDS011;25547;52.530;13.194;2023-04-25T02:47:18;4.20;;;0.70;;
39874;SDS011;25547;52.530;13.194;2023-04-25T02:49:46;3.80;;;0.60;;
39874;SDS011;25547;52.530;13.194;2023-04-25T02:52:14;5.00;;;0.40;;
39874;SDS011;25547;52.530;13.194;2023-04-25T02:54:39;2.97;;;0.50;;
39874;SDS011;25547;52.530;13.194;2023-04-25T02:57:08;5.20;;;0.65;;
39874;SDS011;25547;52.530;13.194;2023-04-25T02:59:33;8.00;;;0.98;;
39874;SDS011;25547;52.530;13.194;2023-04-25T03:02:04;4.07;;;1.10;;
39874;SDS011;25547;52.530;13.194;2023-04-25T03:04:29;7.25;;;0.90;;
39874;SDS011;25547;52.530;13.194;2023-04-25T03:06:58;6.43;;;1.23;;
39874;SDS011;25547;52.530;13.194;2023-04-25T03:09:26;5.28;;;1.00;;
39874;SDS011;25547;52.530;13.194;2023-04-25T03:11:52;6.00;;;0.50;;
39874;SDS011;25547;52.530;13.194;2023-04-25T03:14:18;2.67;;;0.50;;
39874;SDS011;25547;52.530;13.194;2023-04-25T03:16:43;3.03;;;0.52;;
39874;SDS011;25547;52.530;13.194;2023-04-25T03:19:09;4.47;;;0.50;;
39874;SDS011;25547;52.530;13.194;2023-04-25T03:21:40;5.85;;;0.90;;
39874;SDS011;25547;52.530;13.194;2023-04-25T03:24:09;4.68;;;0.70;;
39874;SDS011;25547;52.530;13.194;2023-04-25T03:26:36;4.38;;;0.60;;
39874;SDS011;25547;52.530;13.194;2023-04-25T03:29:01;3.83;;;1.17;;
39874;SDS011;25547;52.530;13.194;2023-04-25T03:31:27;3.75;;;0.40;;
39874;SDS011;25547;52.530;13.194;2023-04-25T03:33:55;4.85;;;0.73;;
39874;SDS011;25547;52.530;13.194;2023-04-25T03:36:21;4.95;;;0.70;;
39874;SDS011;25547;52.530;13.194;2023-04-25T03:38:46;4.75;;;0.88;;
39874;SDS011;25547;52.530;13.194;2023-04-25T03:41:15;3.00;;;0.35;;
39874;SDS011;25547;52.530;13.194;2023-04-25T03:43:40;4.47;;;0.63;;
39874;SDS011;25547;52.530;13.194;2023-04-25T03:46:08;4.15;;;0.63;;
39874;SDS011;25547;52.530;13.194;2023-04-25T03:48:34;6.55;;;0.40;;
39874;SDS011;25547;52.530;13.194;2023-04-25T03:51:02;7.93;;;0.90;;
39874;SDS011;25547;52.530;13.194;2023-04-25T03:53:30;5.97;;;0.80;;
39874;SDS011;25547;52.530;13.194;2023-04-25T03:55:56;6.20;;;1.08;;
39874;SDS011;25547;52.530;13.194;2023-04-25T03:58:21;3.17;;;0.47;;
39874;SDS011;25547;52.530;13.194;2023-04-25T04:00:49;7.47;;;0.90;;
39874;SDS011;25547;52.530;13.194;2023-04-25T04:03:14;9.73;;;1.48;;
39874;SDS011;25547;52.530;13.194;2023-04-25T04:05:42;3.58;;;0.68;;
39874;SDS011;25547;52.530;13.194;2023-04-25T04:08:11;5.50;;;1.38;;
39874;SDS011;25547;52.530;13.194;2023-04-25T04:10:37;9.90;;;1.10;;
39874;SDS011;25547;52.530;13.194;2023-04-25T04:13:05;4.93;;;0.35;;
39874;SDS011;25547;52.530;13.194;2023-04-25T04:15:30;3.35;;;0.50;;
39874;SDS011;25547;52.530;13.194;2023-04-25T04:17:58;6.30;;;0.70;;
39874;SDS011;25547;52.530;13.194;2023-04-25T04:20:27;7.13;;;1.08;;
39874;SDS011;25547;52.530;13.194;2023-04-25T04:22:54;7.35;;;1.25;;
39874;SDS011;25547;52.530;13.194;2023-04-25T04:25:22;6.18;;;0.80;;
39874;SDS011;25547;52.530;13.194;2023-04-25T04:27:53;4.38;;;0.40;;
39874;SDS011;25547;52.530;13.194;2023-04-25T04:30:21;3.85;;;0.65;;
39874;SDS011;25547;52.530;13.194;2023-04-25T04:32:49;2.50;;;0.60;;
39874;SDS011;25547;52.530;13.194;2023-04-25T04:35:17;7.57;;;0.77;;
39874;SDS011;25547;52.530;13.194;2023-04-25T04:37:43;8.77;;;0.77;;
39874;SDS011;25547;52.530;13.194;2023-04-25T04:40:10;3.95;;;0.43;;
39874;SDS011;25547;52.530;13.194;2023-04-25T04:42:36;2.83;;;0.60;;
39874;SDS011;25547;52.530;13.194;2023-04-25T04:45:03;5.00;;;0.40;;
39874;SDS011;25547;52.530;13.194;2023-04-25T04:47:31;3.58;;;0.40;;
39874;SDS011;25547;52.530;13.194;2023-04-25T04:49:57;6.50;;;0.63;;
39874;SDS011;25547;52.530;13.194;2023-04-25T04:52:23;9.23;;;0.60;;
39874;SDS011;25547;52.530;13.194;2023-04-25T04:54:49;3.92;;;0.52;;
39874;SDS011;25547;52.530;13.194;2023-04-25T04:57:14;4.82;;;0.65;;
39874;SDS011;25547;52.530;13.194;2023-04-25T04:59:45;5.40;;;1.08;;
39874;SDS011;25547;52.530;13.194;2023-04-25T05:02:10;2.35;;;0.50;;
39874;SDS011;25547;52.530;13.194;2023-04-25T05:04:36;9.40;;;0.88;;
39874;SDS011;25547;52.530;13.194;2023-04-25T05:07:04;4.20;;;1.17;;
39874;SDS011;25547;52.530;13.194;2023-04-25T05:09:30;6.68;;;1.35;;
39874;SDS011;25547;52.530;13.194;2023-04-25T05:11:55;6.95;;;1.10;;
39874;SDS011;25547;52.530;13.194;2023-04-25T05:14:21;2.40;;;0.43;;
39874;SDS011;25547;52.530;13.194;2023-04-25T05:16:48;4.03;;;1.13;;
39874;SDS011;25547;52.530;13.194;2023-04-25T05:19:14;7.68;;;0.77;;
39874;SDS011;25547;52.530;13.194;2023-04-25T05:21:39;4.65;;;0.88;;
39874;SDS011;25547;52.530;13.194;2023-04-25T05:24:05;5.20;;;1.13;;
39874;SDS011;25547;52.530;13.194;2023-04-25T05:26:31;4.70;;;1.45;;
39874;SDS011;25547;52.530;13.194;2023-04-25T05:28:57;5.43;;;0.90;;
39874;SDS011;25547;52.530;13.194;2023-04-25T05:31:23;5.15;;;0.80;;
39874;SDS011;25547;52.530;13.194;2023-04-25T05:33:51;5.40;;;0.85;;
39874;SDS011;25547;52.530;13.194;2023-04-25T05:36:19;5.05;;;0.65;;
39874;SDS011;25547;52.530;13.194;2023-04-25T05:38:45;5.00;;;0.77;;
39874;SDS011;25547;52.530;13.194;2023-04-25T05:41:10;3.55;;;0.88;;
39874;SDS011;25547;52.530;13.194;2023-04-25T05:43:36;6.70;;;0.77;;
39874;SDS011;25547;52.530;13.194;2023-04-25T05:46:05;6.25;;;1.10;;
39874;SDS011;25547;52.530;13.194;2023-04-25T05:48:33;7.68;;;1.50;;
39874;SDS011;25547;52.530;13.194;2023-04-25T05:50:59;4.10;;;1.20;;
39874;SDS011;25547;52.530;13.194;2023-04-25T05:53:27;5.03;;;0.95;;
39874;SDS011;25547;52.530;13.194;2023-04-25T05:55:53;6.72;;;2.08;;
39874;SDS011;25547;52.530;13.194;2023-04-25T05:58:18;8.75;;;1.52;;
39874;SDS011;25547;52.530;13.194;2023-04-25T06:00:44;8.60;;;1.77;;
39874;SDS011;25547;52.530;13.194;2023-04-25T06:03:11;9.18;;;1.42;;
39874;SDS011;25547;52.530;13.194;2023-04-25T06:08:10;12.50;;;1.85;;
39874;SDS011;25547;52.530;13.194;2023-04-25T06:10:38;8.70;;;2.38;;
39874;SDS011;25547;52.530;13.194;2023-04-25T06:13:06;7.15;;;2.55;;
39874;SDS011;25547;52.530;13.194;2023-04-25T06:15:31;11.27;;;1.67;;
39874;SDS011;25547;52.530;13.194;2023-04-25T06:17:57;8.00;;;1.20;;
39874;SDS011;25547;52.530;13.194;2023-04-25T06:20:25;9.02;;;1.30;;
39874;SDS011;25547;52.530;13.194;2023-04-25T06:22:50;8.27;;;1.23;;
39874;SDS011;25547;52.530;13.194;2023-04-25T06:25:17;9.70;;;1.45;;
39874;SDS011;25547;52.530;13.194;2023-04-25T06:27:46;9.50;;;2.00;;
39874;SDS011;25547;52.530;13.194;2023-04-25T06:30:11;7.70;;;1.73;;
39874;SDS011;25547;52.530;13.194;2023-04-25T06:32:41;7.40;;;1.48;;
39874;SDS011;25547;52.530;13.194;2023-04-25T06:35:12;8.30;;;1.45;;
39874;SDS011;25547;52.530;13.194;2023-04-25T06:37:38;5.13;;;1.83;;
39874;SDS011;25547;52.530;13.194;2023-04-25T06:40:04;4.65;;;1.63;;
39874;SDS011;25547;52.530;13.194;2023-04-25T06:42:30;6.82;;;1.45;;
39874;SDS011;25547;52.530;13.194;2023-04-25T06:44:58;9.43;;;2.03;;
39874;SDS011;25547;52.530;13.194;2023-04-25T06:47:23;6.95;;;1.27;;
39874;SDS011;25547;52.530;13.194;2023-04-25T06:49:49;7.45;;;1.15;;
39874;SDS011;25547;52.530;13.194;2023-04-25T06:52:15;6.75;;;1.35;;
39874;SDS011;25547;52.530;13.194;2023-04-25T06:54:42;7.82;;;0.88;;
39874;SDS011;25547;52.530;13.194;2023-04-25T06:57:11;6.18;;;1.33;;
39874;SDS011;25547;52.530;13.194;2023-04-25T06:59:37;4.72;;;0.82;;
39874;SDS011;25547;52.530;13.194;2023-04-25T07:02:02;7.82;;;1.60;;
39874;SDS011;25547;52.530;13.194;2023-04-25T07:04:28;4.82;;;1.15;;
39874;SDS011;25547;52.530;13.194;2023-04-25T07:06:55;5.38;;;0.90;;
39874;SDS011;25547;52.530;13.194;2023-04-25T07:09:21;10.27;;;1.63;;
39874;SDS011;25547;52.530;13.194;2023-04-25T07:11:47;5.60;;;0.98;;
39874;SDS011;25547;52.530;13.194;2023-04-25T07:14:14;5.78;;;0.90;;
39874;SDS011;25547;52.530;13.194;2023-04-25T07:16:42;5.03;;;0.93;;
39874;SDS011;25547;52.530;13.194;2023-04-25T07:19:08;5.55;;;1.00;;
39874;SDS011;25547;52.530;13.194;2023-04-25T07:21:34;9.80;;;1.58;;
39874;SDS011;25547;52.530;13.194;2023-04-25T07:24:01;7.47;;;0.77;;
39874;SDS011;25547;52.530;13.194;2023-04-25T07:26:27;12.65;;;1.00;;
39874;SDS011;25547;52.530;13.194;2023-04-25T07:28:52;11.48;;;1.20;;
39874;SDS011;25547;52.530;13.194;2023-04-25T07:31:19;8.27;;;1.67;;
39874;SDS011;25547;52.530;13.194;2023-04-25T07:33:46;12.13;;;1.10;;
39874;SDS011;25547;52.530;13.194;2023-04-25T07:36:12;11.50;;;1.05;;
39874;SDS011;25547;52.530;13.194;2023-04-25T07:38:40;10.88;;;1.88;;
39874;SDS011;25547;52.530;13.194;2023-04-25T07:41:08;20.58;;;1.70;;
39874;SDS011;25547;52.530;13.194;2023-04-25T07:43:34;9.27;;;1.23;;
39874;SDS011;25547;52.530;13.194;2023-04-25T07:46:00;15.93;;;1.67;;
39874;SDS011;25547;52.530;13.194;2023-04-25T07:48:27;11.25;;;0.47;;
39874;SDS011;25547;52.530;13.194;2023-04-25T07:50:53;10.50;;;0.80;;
39874;SDS011;25547;52.530;13.194;2023-04-25T07:53:21;18.00;;;2.50;;
39874;SDS011;25547;52.530;13.194;2023-04-25T07:55:49;17.75;;;1.60;;
39874;SDS011;25547;52.530;13.194;2023-04-25T07:58:16;26.63;;;2.85;;
39874;SDS011;25547;52.530;13.194;2023-04-25T08:00:46;9.52;;;1.25;;
39874;SDS011;25547;52.530;13.194;2023-04-25T08:03:14;14.02;;;1.35;;
39874;SDS011;25547;52.530;13.194;2023-04-25T08:05:40;17.65;;;2.40;;
39874;SDS011;25547;52.530;13.194;2023-04-25T08:08:08;12.50;;;0.90;;
39874;SDS011;25547;52.530;13.194;2023-04-25T08:10:36;19.70;;;3.75;;
39874;SDS011;25547;52.530;13.194;2023-04-25T08:13:02;12.20;;;1.92;;
39874;SDS011;25547;52.530;13.194;2023-04-25T08:15:32;10.85;;;0.90;;
39874;SDS011;25547;52.530;13.194;2023-04-25T08:17:58;15.98;;;1.95;;
39874;SDS011;25547;52.530;13.194;2023-04-25T08:20:24;10.27;;;1.20;;
39874;SDS011;25547;52.530;13.194;2023-04-25T08:22:50;20.38;;;2.30;;
39874;SDS011;25547;52.530;13.194;2023-04-25T08:25:15;21.35;;;2.42;;
39874;SDS011;25547;52.530;13.194;2023-04-25T08:27:44;9.18;;;0.32;;
39874;SDS011;25547;52.530;13.194;2023-04-25T08:30:09;14.23;;;0.77;;
39874;SDS011;25547;52.530;13.194;2023-04-25T08:32:35;9.88;;;1.08;;
39874;SDS011;25547;52.530;13.194;2023-04-25T08:35:03;7.20;;;0.80;;
39874;SDS011;25547;52.530;13.194;2023-04-25T08:37:29;17.42;;;2.35;;
39874;SDS011;25547;52.530;13.194;2023-04-25T08:39:57;10.23;;;0.85;;
39874;SDS011;25547;52.530;13.194;2023-04-25T08:42:24;12.45;;;0.60;;
39874;SDS011;25547;52.530;13.194;2023-04-25T08:44:52;7.88;;;0.77;;
39874;SDS011;25547;52.530;13.194;2023-04-25T08:47:20;7.53;;;0.63;;
39874;SDS011;25547;52.530;13.194;2023-04-25T08:49:49;4.85;;;1.50;;
39874;SDS011;25547;52.530;13.194;2023-04-25T08:52:21;5.65;;;0.60;;
39874;SDS011;25547;52.530;13.194;2023-04-25T08:54:50;9.52;;;1.02;;
39874;SDS011;25547;52.530;13.194;2023-04-25T08:57:17;7.53;;;0.47;;
39874;SDS011;25547;52.530;13.194;2023-04-25T08:59:46;15.00;;;1.10;;
39874;SDS011;25547;52.530;13.194;2023-04-25T09:02:13;10.50;;;0.80;;
39874;SDS011;25547;52.530;13.194;2023-04-25T09:04:42;11.23;;;1.05;;
39874;SDS011;25547;52.530;13.194;2023-04-25T09:07:11;4.03;;;0.33;;
39874;SDS011;25547;52.530;13.194;2023-04-25T09:09:39;7.53;;;0.38;;
39874;SDS011;25547;52.530;13.194;2023-04-25T09:12:05;9.57;;;1.40;;
39874;SDS011;25547;52.530;13.194;2023-04-25T09:14:31;9.43;;;0.52;;
39874;SDS011;25547;52.530;13.194;2023-04-25T09:19:26;3.42;;;0.65;;
39874;SDS011;25547;52.530;13.194;2023-04-25T09:21:57;6.47;;;0.50;;
39874;SDS011;25547;52.530;13.194;2023-04-25T09:24:30;7.82;;;0.22;;
39874;SDS011;25547;52.530;13.194;2023-04-25T09:27:11;13.43;;;0.47;;
39874;SDS011;25547;52.530;13.194;2023-04-25T09:29:42;10.75;;;0.77;;
39874;SDS011;25547;52.530;13.194;2023-04-25T09:34:46;6.35;;;0.20;;
39874;SDS011;25547;52.530;13.194;2023-04-25T09:37:17;3.83;;;0.40;;
39874;SDS011;25547;52.530;13.194;2023-04-25T09:39:47;13.30;;;0.70;;
39874;SDS011;25547;52.530;13.194;2023-04-25T09:42:17;5.32;;;0.20;;
39874;SDS011;25547;52.530;13.194;2023-04-25T09:44:46;5.43;;;0.40;;
39874;SDS011;25547;52.530;13.194;2023-04-25T09:47:13;10.82;;;0.30;;
39874;SDS011;25547;52.530;13.194;2023-04-25T09:49:41;6.57;;;0.95;;
39874;SDS011;25547;52.530;13.194;2023-04-25T09:52:08;6.43;;;0.70;;
39874;SDS011;25547;52.530;13.194;2023-04-25T09:54:37;6.15;;;0.30;;
39874;SDS011;25547;52.530;13.194;2023-04-25T09:57:07;3.90;;;0.35;;
39874;SDS011;25547;52.530;13.194;2023-04-25T09:59:48;8.77;;;0.45;;
39874;SDS011;25547;52.530;13.194;2023-04-25T10:02:19;8.38;;;0.50;;
39874;SDS011;25547;52.530;13.194;2023-04-25T10:04:52;5.40;;;0.30;;
39874;SDS011;25547;52.530;13.194;2023-04-25T10:07:22;6.97;;;0.52;;
39874;SDS011;25547;52.530;13.194;2023-04-25T10:09:52;9.32;;;0.70;;
39874;SDS011;25547;52.530;13.194;2023-04-25T10:12:24;7.88;;;0.20;;
39874;SDS011;25547;52.530;13.194;2023-04-25T10:14:50;8.52;;;1.77;;
39874;SDS011;25547;52.530;13.194;2023-04-25T10:17:17;8.32;;;0.40;;
39874;SDS011;25547;52.530;13.194;2023-04-25T10:19:45;10.50;;;0.20;;
39874;SDS011;25547;52.530;13.194;2023-04-25T10:25:11;9.18;;;0.38;;
39874;SDS011;25547;52.530;13.194;2023-04-25T10:27:38;9.45;;;0.82;;
39874;SDS011;25547;52.530;13.194;2023-04-25T10:30:08;5.65;;;0.40;;
39874;SDS011;25547;52.530;13.194;2023-04-25T10:32:42;7.10;;;0.43;;
39874;SDS011;25547;52.530;13.194;2023-04-25T10:35:18;5.35;;;0.43;;
39874;SDS011;25547;52.530;13.194;2023-04-25T10:38:11;6.25;;;0.25;;
39874;SDS011;25547;52.530;13.194;2023-04-25T10:40:39;8.13;;;0.30;;
39874;SDS011;25547;52.530;13.194;2023-04-25T10:48:59;7.03;;;0.22;;
39874;SDS011;25547;52.530;13.194;2023-04-25T10:51:31;8.32;;;0.40;;
39874;SDS011;25547;52.530;13.194;2023-04-25T10:53:59;4.82;;;0.40;;
39874;SDS011;25547;52.530;13.194;2023-04-25T10:56:30;9.27;;;0.75;;
39874;SDS011;25547;52.530;13.194;2023-04-25T11:01:44;4.53;;;0.30;;
39874;SDS011;25547;52.530;13.194;2023-04-25T11:09:30;3.85;;;0.30;;
39874;SDS011;25547;52.530;13.194;2023-04-25T11:12:00;8.45;;;0.70;;
39874;SDS011;25547;52.530;13.194;2023-04-25T11:14:26;4.35;;;0.20;;
39874;SDS011;25547;52.530;13.194;2023-04-25T11:16:55;4.97;;;0.25;;
39874;SDS011;25547;52.530;13.194;2023-04-25T11:19:25;4.07;;;0.70;;
39874;SDS011;25547;52.530;13.194;2023-04-25T11:21:54;4.88;;;0.17;;
39874;SDS011;25547;52.530;13.194;2023-04-25T11:24:29;4.97;;;0.57;;
39874;SDS011;25547;52.530;13.194;2023-04-25T11:26:57;3.63;;;0.10;;
39874;SDS011;25547;52.530;13.194;2023-04-25T11:29:30;6.50;;;0.52;;
39874;SDS011;25547;52.530;13.194;2023-04-25T11:31:56;8.18;;;0.20;;
39874;SDS011;25547;52.530;13.194;2023-04-25T11:34:26;5.93;;;0.75;;
39874;SDS011;25547;52.530;13.194;2023-04-25T11:36:55;7.53;;;0.20;;
39874;SDS011;25547;52.530;13.194;2023-04-25T11:39:21;3.38;;;0.10;;
39874;SDS011;25547;52.530;13.194;2023-04-25T11:41:51;4.25;;;0.20;;
39874;SDS011;25547;52.530;13.194;2023-04-25T11:44:17;6.43;;;0.10;;
39874;SDS011;25547;52.530;13.194;2023-04-25T11:46:44;3.92;;;0.25;;
39874;SDS011;25547;52.530;13.194;2023-04-25T11:49:11;7.03;;;0.20;;
39874;SDS011;25547;52.530;13.194;2023-04-25T11:54:05;4.75;;;0.20;;
39874;SDS011;25547;52.530;13.194;2023-04-25T11:56:31;6.63;;;0.20;;
39874;SDS011;25547;52.530;13.194;2023-04-25T11:59:00;3.83;;;0.52;;
39874;SDS011;25547;52.530;13.194;2023-04-25T12:01:31;5.93;;;0.20;;
39874;SDS011;25547;52.530;13.194;2023-04-25T12:03:58;5.38;;;0.40;;
39874;SDS011;25547;52.530;13.194;2023-04-25T12:06:38;5.60;;;0.55;;
39874;SDS011;25547;52.530;13.194;2023-04-25T12:09:07;3.25;;;0.55;;
39874;SDS011;25547;52.530;13.194;2023-04-25T12:11:40;1.83;;;0.20;;
39874;SDS011;25547;52.530;13.194;2023-04-25T12:14:07;3.67;;;0.15;;
39874;SDS011;25547;52.530;13.194;2023-04-25T12:16:42;4.30;;;0.40;;
39874;SDS011;25547;52.530;13.194;2023-04-25T12:19:08;4.82;;;0.50;;
39874;SDS011;25547;52.530;13.194;2023-04-25T12:21:34;4.32;;;0.22;;
39874;SDS011;25547;52.530;13.194;2023-04-25T12:24:12;4.57;;;0.20;;
39874;SDS011;25547;52.530;13.194;2023-04-25T12:29:33;6.90;;;0.50;;
39874;SDS011;25547;52.530;13.194;2023-04-25T12:32:01;12.43;;;0.30;;
39874;SDS011;25547;52.530;13.194;2023-04-25T12:34:27;3.72;;;0.50;;
39874;SDS011;25547;52.530;13.194;2023-04-25T12:36:53;5.40;;;0.20;;
39874;SDS011;25547;52.530;13.194;2023-04-25T12:39:23;9.98;;;1.05;;
39874;SDS011;25547;52.530;13.194;2023-04-25T12:41:53;4.25;;;0.15;;
39874;SDS011;25547;52.530;13.194;2023-04-25T12:44:21;7.78;;;0.30;;
39874;SDS011;25547;52.530;13.194;2023-04-25T12:46:49;11.05;;;0.30;;
39874;SDS011;25547;52.530;13.194;2023-04-25T12:49:17;2.10;;;0.10;;
39874;SDS011;25547;52.530;13.194;2023-04-25T12:51:43;3.88;;;0.20;;
39874;SDS011;25547;52.530;13.194;2023-04-25T12:54:09;3.53;;;0.17;;
39874;SDS011;25547;52.530;13.194;2023-04-25T12:56:35;5.18;;;0.20;;
39874;SDS011;25547;52.530;13.194;2023-04-25T12:59:01;4.95;;;0.17;;
39874;SDS011;25547;52.530;13.194;2023-04-25T13:01:30;2.88;;;0.10;;
39874;SDS011;25547;52.530;13.194;2023-04-25T13:03:59;4.88;;;0.20;;
39874;SDS011;25547;52.530;13.194;2023-04-25T13:06:24;2.70;;;0.10;;
39874;SDS011;25547;52.530;13.194;2023-04-25T13:08:52;2.78;;;0.10;;
39874;SDS011;25547;52.530;13.194;2023-04-25T13:11:18;3.67;;;0.10;;
39874;SDS011;25547;52.530;13.194;2023-04-25T13:13:44;6.47;;;0.45;;
39874;SDS011;25547;52.530;13.194;2023-04-25T13:16:12;5.35;;;0.10;;
39874;SDS011;25547;52.530;13.194;2023-04-25T13:18:45;3.63;;;0.17;;
39874;SDS011;25547;52.530;13.194;2023-04-25T13:21:11;5.00;;;0.10;;
39874;SDS011;25547;52.530;13.194;2023-04-25T13:23:37;4.90;;;1.90;;
39874;SDS011;25547;52.530;13.194;2023-04-25T13:26:03;6.40;;;0.10;;
39874;SDS011;25547;52.530;13.194;2023-04-25T13:28:35;6.85;;;0.20;;
39874;SDS011;25547;52.530;13.194;2023-04-25T13:31:01;3.08;;;0.10;;
39874;SDS011;25547;52.530;13.194;2023-04-25T13:33:27;3.75;;;0.20;;
39874;SDS011;25547;52.530;13.194;2023-04-25T13:35:54;5.22;;;0.20;;
39874;SDS011;25547;52.530;13.194;2023-04-25T13:38:22;4.10;;;0.20;;
39874;SDS011;25547;52.530;13.194;2023-04-25T13:40:52;5.18;;;0.20;;
39874;SDS011;25547;52.530;13.194;2023-04-25T13:43:22;2.75;;;0.15;;
39874;SDS011;25547;52.530;13.194;2023-04-25T13:45:48;8.30;;;0.32;;
39874;SDS011;25547;52.530;13.194;2023-04-25T13:48:17;10.13;;;0.82;;
39874;SDS011;25547;52.530;13.194;2023-04-25T13:50:43;5.90;;;0.90;;
39874;SDS011;25547;52.530;13.194;2023-04-25T13:53:09;3.33;;;0.20;;
39874;SDS011;25547;52.530;13.194;2023-04-25T13:55:35;8.18;;;0.20;;
39874;SDS011;25547;52.530;13.194;2023-04-25T13:58:02;2.25;;;0.10;;
39874;SDS011;25547;52.530;13.194;2023-04-25T14:00:33;3.17;;;0.10;;
39874;SDS011;25547;52.530;13.194;2023-04-25T14:03:07;1.98;;;0.10;;
39874;SDS011;25547;52.530;13.194;2023-04-25T14:05:33;6.22;;;0.13;;
39874;SDS011;25547;52.530;13.194;2023-04-25T14:08:03;2.97;;;0.10;;
39874;SDS011;25547;52.530;13.194;2023-04-25T14:10:34;5.63;;;0.10;;
39874;SDS011;25547;52.530;13.194;2023-04-25T14:13:02;3.50;;;0.20;;
39874;SDS011;25547;52.530;13.194;2023-04-25T14:15:28;5.60;;;0.43;;
39874;SDS011;25547;52.530;13.194;2023-04-25T14:17:55;2.55;;;0.10;;
39874;SDS011;25547;52.530;13.194;2023-04-25T14:20:21;3.17;;;0.10;;
39874;SDS011;25547;52.530;13.194;2023-04-25T14:22:49;5.97;;;0.10;;
39874;SDS011;25547;52.530;13.194;2023-04-25T14:25:14;6.50;;;0.10;;
39874;SDS011;25547;52.530;13.194;2023-04-25T14:27:40;3.78;;;0.10;;
39874;SDS011;25547;52.530;13.194;2023-04-25T14:30:06;4.43;;;0.22;;
39874;SDS011;25547;52.530;13.194;2023-04-25T14:32:34;7.60;;;1.45;;
39874;SDS011;25547;52.530;13.194;2023-04-25T14:35:01;3.75;;;0.20;;
39874;SDS011;25547;52.530;13.194;2023-04-25T14:37:29;4.57;;;0.20;;
39874;SDS011;25547;52.530;13.194;2023-04-25T14:39:55;5.97;;;0.10;;
39874;SDS011;25547;52.530;13.194;2023-04-25T14:42:21;4.82;;;0.10;;
39874;SDS011;25547;52.530;13.194;2023-04-25T14:44:49;3.55;;;0.35;;
39874;SDS011;25547;52.530;13.194;2023-04-25T14:47:17;4.45;;;0.10;;
39874;SDS011;25547;52.530;13.194;2023-04-25T14:49:43;5.13;;;0.13;;
39874;SDS011;25547;52.530;13.194;2023-04-25T14:52:14;3.70;;;0.40;;
39874;SDS011;25547;52.530;13.194;2023-04-25T14:54:39;3.55;;;0.63;;
39874;SDS011;25547;52.530;13.194;2023-04-25T14:57:05;7.40;;;0.30;;
39874;SDS011;25547;52.530;13.194;2023-04-25T14:59:31;6.38;;;0.20;;
39874;SDS011;25547;52.530;13.194;2023-04-25T15:01:56;3.03;;;0.17;;
39874;SDS011;25547;52.530;13.194;2023-04-25T15:04:24;4.28;;;0.20;;